sensor_id;sensor_type;location;lat;lon;timestamp;temperature;humidity
51655;DHT22;37732;53.106;7.030;2024-03-23T00:54:38;6.30;99.90
51655;DHT22;37732;53.106;7.030;2024-03-23T00:57:04;6.30;99.90
51655;DHT22;37732;53.106;7.030;2024-03-23T00:59:29;6.40;99.90
51655;DHT22;37732;53.106;7.030;2024-03-23T01:01:56;6.30;99.90
51655;DHT22;37732;53.106;7.030;2024-03-23T01:04:22;6.40;99.90
51655;DHT22;37732;53.106;7.030;2024-03-23T01:06:48;6.30;99.90
51655;DHT22;37732;53.106;7.030;2024-03-23T01:09:13;6.30;99.90
51655;DHT22;37732;53.106;7.030;2024-03-23T01:11:39;6.10;99.90
51655;DHT22;37732;53.106;7.030;2024-03-23T01:14:05;6.20;99.90
51655;DHT22;37732;53.106;7.030;2024-03-23T01:16:32;6.20;99.90
51655;DHT22;37732;53.106;7.030;2024-03-23T01:18:58;6.10;99.90
51655;DHT22;37732;53.106;7.030;2024-03-23T01:21:23;6.10;99.90
51655;DHT22;37732;53.106;7.030;2024-03-23T01:23:49;6.10;99.90
51655;DHT22;37732;53.106;7.030;2024-03-23T01:26:15;6.00;99.90
51655;DHT22;37732;53.106;7.030;2024-03-23T01:28:40;6.00;99.90
51655;DHT22;37732;53.106;7.030;2024-03-23T01:31:06;6.00;99.90
51655;DHT22;37732;53.106;7.030;2024-03-23T01:33:32;5.90;99.90
51655;DHT22;37732;53.106;7.030;2024-03-23T01:35:58;5.90;99.90
51655;DHT22;37732;53.106;7.030;2024-03-23T01:38:23;6.10;99.90
51655;DHT22;37732;53.106;7.030;2024-03-23T01:40:49;5.80;99.90
51655;DHT22;37732;53.106;7.030;2024-03-23T01:43:15;5.90;99.90
51655;DHT22;37732;53.106;7.030;2024-03-23T01:45:40;5.80;99.90
51655;DHT22;37732;53.106;7.030;2024-03-23T01:48:06;5.70;99.90
51655;DHT22;37732;53.106;7.030;2024-03-23T01:50:33;5.70;99.90
51655;DHT22;37732;53.106;7.030;2024-03-23T01:53:02;5.70;99.90
51655;DHT22;37732;53.106;7.030;2024-03-23T01:55:28;5.60;99.90
51655;DHT22;37732;53.106;7.030;2024-03-23T01:57:56;5.60;99.90
51655;DHT22;37732;53.106;7.030;2024-03-23T02:03:00;5.50;99.90
51655;DHT22;37732;53.106;7.030;2024-03-23T02:05:26;5.50;99.90
51655;DHT22;37732;53.106;7.030;2024-03-23T02:07:52;5.40;99.90
51655;DHT22;37732;53.106;7.030;2024-03-23T02:10:18;5.80;99.90
51655;DHT22;37732;53.106;7.030;2024-03-23T02:12:44;5.30;99.90
51655;DHT22;37732;53.106;7.030;2024-03-23T02:15:10;5.30;99.90
51655;DHT22;37732;53.106;7.030;2024-03-23T02:17:36;5.20;99.90
51655;DHT22;37732;53.106;7.030;2024-03-23T02:20:02;5.20;99.90
51655;DHT22;37732;53.106;7.030;2024-03-23T02:22:36;5.20;99.90
51655;DHT22;37732;53.106;7.030;2024-03-23T02:25:03;5.20;99.90
51655;DHT22;37732;53.106;7.030;2024-03-23T02:27:29;5.10;99.90
51655;DHT22;37732;53.106;7.030;2024-03-23T02:29:55;5.20;99.90
51655;DHT22;37732;53.106;7.030;2024-03-23T02:32:20;5.20;99.90
51655;DHT22;37732;53.106;7.030;2024-03-23T02:34:46;5.10;99.90
51655;DHT22;37732;53.106;7.030;2024-03-23T02:37:12;5.10;99.90
51655;DHT22;37732;53.106;7.030;2024-03-23T02:39:38;5.10;99.90
51655;DHT22;37732;53.106;7.030;2024-03-23T02:42:03;5.00;99.90
51655;DHT22;37732;53.106;7.030;2024-03-23T02:44:29;5.00;99.90
51655;DHT22;37732;53.106;7.030;2024-03-23T02:46:55;5.00;99.90
51655;DHT22;37732;53.106;7.030;2024-03-23T02:49:20;5.00;99.90
51655;DHT22;37732;53.106;7.030;2024-03-23T02:51:47;5.00;99.90
51655;DHT22;37732;53.106;7.030;2024-03-23T02:54:14;5.00;99.90
51655;DHT22;37732;53.106;7.030;2024-03-23T02:56:39;5.30;99.90
51655;DHT22;37732;53.106;7.030;2024-03-23T02:59:05;4.90;99.90
51655;DHT22;37732;53.106;7.030;2024-03-23T03:01:31;4.90;99.90
51655;DHT22;37732;53.106;7.030;2024-03-23T03:03:56;4.90;99.90
51655;DHT22;37732;53.106;7.030;2024-03-23T03:06:25;4.90;99.90
51655;DHT22;37732;53.106;7.030;2024-03-23T03:08:51;4.90;99.90
51655;DHT22;37732;53.106;7.030;2024-03-23T03:11:17;4.90;99.90
51655;DHT22;37732;53.106;7.030;2024-03-23T03:13:42;4.80;99.90
51655;DHT22;37732;53.106;7.030;2024-03-23T03:16:09;4.80;99.90
51655;DHT22;37732;53.106;7.030;2024-03-23T03:18:35;4.80;99.90
51655;DHT22;37732;53.106;7.030;2024-03-23T03:21:01;4.80;99.90
51655;DHT22;37732;53.106;7.030;2024-03-23T03:23:27;4.80;99.90
51655;DHT22;37732;53.106;7.030;2024-03-23T03:25:52;4.80;99.90
51655;DHT22;37732;53.106;7.030;2024-03-23T03:28:18;4.90;99.90
51655;DHT22;37732;53.106;7.030;2024-03-23T03:30:45;4.70;99.90
51655;DHT22;37732;53.106;7.030;2024-03-23T03:33:10;4.70;99.90
51655;DHT22;37732;53.106;7.030;2024-03-23T03:35:36;4.50;99.90
51655;DHT22;37732;53.106;7.030;2024-03-23T03:42:56;4.30;99.90
51655;DHT22;37732;53.106;7.030;2024-03-23T03:45:21;4.30;99.90
51655;DHT22;37732;53.106;7.030;2024-03-23T03:47:47;4.70;99.90
51655;DHT22;37732;53.106;7.030;2024-03-23T03:50:13;4.10;99.90
51655;DHT22;37732;53.106;7.030;2024-03-23T03:52:38;3.90;99.90
51655;DHT22;37732;53.106;7.030;2024-03-23T03:55:12;3.90;99.90
51655;DHT22;37732;53.106;7.030;2024-03-23T03:57:38;4.10;99.90
51655;DHT22;37732;53.106;7.030;2024-03-23T04:00:04;3.90;99.90
51655;DHT22;37732;53.106;7.030;2024-03-23T04:02:30;3.70;99.90
51655;DHT22;37732;53.106;7.030;2024-03-23T04:04:56;3.60;99.90
51655;DHT22;37732;53.106;7.030;2024-03-23T04:07:21;3.50;99.90
51655;DHT22;37732;53.106;7.030;2024-03-23T04:09:48;3.50;99.90
51655;DHT22;37732;53.106;7.030;2024-03-23T04:12:15;3.50;99.90
51655;DHT22;37732;53.106;7.030;2024-03-23T04:14:41;3.40;99.90
51655;DHT22;37732;53.106;7.030;2024-03-23T04:17:07;3.40;99.90
51655;DHT22;37732;53.106;7.030;2024-03-23T04:19:32;3.40;99.90
51655;DHT22;37732;53.106;7.030;2024-03-23T04:21:58;3.30;99.90
51655;DHT22;37732;53.106;7.030;2024-03-23T04:24:24;3.30;99.90
51655;DHT22;37732;53.106;7.030;2024-03-23T04:26:51;3.30;99.90
51655;DHT22;37732;53.106;7.030;2024-03-23T04:29:17;4.10;99.90
51655;DHT22;37732;53.106;7.030;2024-03-23T04:31:42;3.40;99.90
51655;DHT22;37732;53.106;7.030;2024-03-23T04:34:08;3.20;99.90
51655;DHT22;37732;53.106;7.030;2024-03-23T04:36:34;3.20;99.90
51655;DHT22;37732;53.106;7.030;2024-03-23T04:39:00;3.20;99.90
51655;DHT22;37732;53.106;7.030;2024-03-23T04:41:26;3.90;99.90
51655;DHT22;37732;53.106;7.030;2024-03-23T04:43:52;3.10;99.90
51655;DHT22;37732;53.106;7.030;2024-03-23T04:46:17;3.10;99.90
51655;DHT22;37732;53.106;7.030;2024-03-23T04:48:43;3.10;99.90
51655;DHT22;37732;53.106;7.030;2024-03-23T04:51:10;3.20;99.90
51655;DHT22;37732;53.106;7.030;2024-03-23T04:53:38;3.10;99.90
51655;DHT22;37732;53.106;7.030;2024-03-23T04:56:04;3.30;99.90
51655;DHT22;37732;53.106;7.030;2024-03-23T04:58:29;3.10;99.90
51655;DHT22;37732;53.106;7.030;2024-03-23T05:00:56;3.20;99.90
51655;DHT22;37732;53.106;7.030;2024-03-23T05:03:22;3.20;99.90
51655;DHT22;37732;53.106;7.030;2024-03-23T05:05:48;3.20;99.90
51655;DHT22;37732;53.106;7.030;2024-03-23T05:08:15;3.20;99.90
51655;DHT22;37732;53.106;7.030;2024-03-23T05:10:44;3.20;99.90
51655;DHT22;37732;53.106;7.030;2024-03-23T05:13:11;3.20;99.90
51655;DHT22;37732;53.106;7.030;2024-03-23T05:15:36;4.10;99.90
51655;DHT22;37732;53.106;7.030;2024-03-23T05:18:02;3.30;99.90
51655;DHT22;37732;53.106;7.030;2024-03-23T05:20:28;3.30;99.90
51655;DHT22;37732;53.106;7.030;2024-03-23T05:22:55;3.40;99.90
51655;DHT22;37732;53.106;7.030;2024-03-23T05:25:21;3.40;99.90
51655;DHT22;37732;53.106;7.030;2024-03-23T05:27:46;3.40;99.90
51655;DHT22;37732;53.106;7.030;2024-03-23T05:30:12;3.40;99.90
51655;DHT22;37732;53.106;7.030;2024-03-23T05:32:38;3.40;99.90
51655;DHT22;37732;53.106;7.030;2024-03-23T05:35:07;3.40;99.90
51655;DHT22;37732;53.106;7.030;2024-03-23T05:37:33;3.40;99.90
51655;DHT22;37732;53.106;7.030;2024-03-23T05:40:03;3.40;99.90
51655;DHT22;37732;53.106;7.030;2024-03-23T05:42:29;3.50;99.90
51655;DHT22;37732;53.106;7.030;2024-03-23T05:44:55;3.60;99.90
51655;DHT22;37732;53.106;7.030;2024-03-23T05:47:21;3.60;99.90
51655;DHT22;37732;53.106;7.030;2024-03-23T05:49:46;3.80;99.90
51655;DHT22;37732;53.106;7.030;2024-03-23T05:52:13;3.70;99.90
51655;DHT22;37732;53.106;7.030;2024-03-23T05:54:39;3.70;99.90
51655;DHT22;37732;53.106;7.030;2024-03-23T05:57:04;3.70;99.90
51655;DHT22;37732;53.106;7.030;2024-03-23T05:59:33;3.80;99.90
51655;DHT22;37732;53.106;7.030;2024-03-23T06:01:59;3.80;99.90
51655;DHT22;37732;53.106;7.030;2024-03-23T06:04:24;3.90;99.90
51655;DHT22;37732;53.106;7.030;2024-03-23T06:06:51;3.90;99.90
51655;DHT22;37732;53.106;7.030;2024-03-23T06:09:18;4.10;99.90
51655;DHT22;37732;53.106;7.030;2024-03-23T06:11:44;4.10;99.90
51655;DHT22;37732;53.106;7.030;2024-03-23T06:14:10;4.10;99.90
51655;DHT22;37732;53.106;7.030;2024-03-23T06:16:36;4.20;99.90
51655;DHT22;37732;53.106;7.030;2024-03-23T06:19:02;4.20;99.90
51655;DHT22;37732;53.106;7.030;2024-03-23T06:21:30;4.30;99.90
51655;DHT22;37732;53.106;7.030;2024-03-23T06:23:55;4.40;99.90
51655;DHT22;37732;53.106;7.030;2024-03-23T06:26:21;4.50;99.90
51655;DHT22;37732;53.106;7.030;2024-03-23T06:28:47;4.60;99.90
51655;DHT22;37732;53.106;7.030;2024-03-23T06:31:13;4.70;99.90
51655;DHT22;37732;53.106;7.030;2024-03-23T06:33:39;4.90;99.90
51655;DHT22;37732;53.106;7.030;2024-03-23T06:36:09;5.10;99.90
51655;DHT22;37732;53.106;7.030;2024-03-23T06:38:36;5.50;99.90
51655;DHT22;37732;53.106;7.030;2024-03-23T06:41:08;5.40;99.90
51655;DHT22;37732;53.106;7.030;2024-03-23T06:43:33;5.50;99.90
51655;DHT22;37732;53.106;7.030;2024-03-23T06:45:59;5.60;99.90
51655;DHT22;37732;53.106;7.030;2024-03-23T06:48:25;5.60;99.90
51655;DHT22;37732;53.106;7.030;2024-03-23T06:50:56;5.70;99.90
51655;DHT22;37732;53.106;7.030;2024-03-23T06:53:21;5.80;99.90
51655;DHT22;37732;53.106;7.030;2024-03-23T06:55:51;5.80;99.90
51655;DHT22;37732;53.106;7.030;2024-03-23T06:58:21;5.80;99.90
51655;DHT22;37732;53.106;7.030;2024-03-23T07:00:47;5.80;99.90
51655;DHT22;37732;53.106;7.030;2024-03-23T07:03:13;5.80;99.90
51655;DHT22;37732;53.106;7.030;2024-03-23T07:05:41;5.70;99.90
51655;DHT22;37732;53.106;7.030;2024-03-23T07:08:08;5.70;99.90
51655;DHT22;37732;53.106;7.030;2024-03-23T07:10:34;5.80;99.90
51655;DHT22;37732;53.106;7.030;2024-03-23T07:13:00;6.00;99.90
51655;DHT22;37732;53.106;7.030;2024-03-23T07:15:25;6.10;99.90
51655;DHT22;37732;53.106;7.030;2024-03-23T07:17:51;6.30;99.90
51655;DHT22;37732;53.106;7.030;2024-03-23T07:20:17;6.50;99.90
51655;DHT22;37732;53.106;7.030;2024-03-23T07:22:42;6.50;99.90
51655;DHT22;37732;53.106;7.030;2024-03-23T07:25:08;6.40;99.90
51655;DHT22;37732;53.106;7.030;2024-03-23T07:27:34;6.30;99.90
51655;DHT22;37732;53.106;7.030;2024-03-23T07:29:59;6.20;99.90
51655;DHT22;37732;53.106;7.030;2024-03-23T07:32:26;6.10;99.90
51655;DHT22;37732;53.106;7.030;2024-03-23T07:34:52;6.00;99.90
51655;DHT22;37732;53.106;7.030;2024-03-23T07:37:21;6.00;99.90
51655;DHT22;37732;53.106;7.030;2024-03-23T07:39:47;6.20;99.90
51655;DHT22;37732;53.106;7.030;2024-03-23T07:42:13;6.40;99.90
51655;DHT22;37732;53.106;7.030;2024-03-23T07:44:38;6.60;99.90
51655;DHT22;37732;53.106;7.030;2024-03-23T07:47:05;6.80;99.90
51655;DHT22;37732;53.106;7.030;2024-03-23T07:49:30;7.00;99.90
51655;DHT22;37732;53.106;7.030;2024-03-23T07:51:56;7.10;99.90
51655;DHT22;37732;53.106;7.030;2024-03-23T07:54:22;7.20;99.90
51655;DHT22;37732;53.106;7.030;2024-03-23T07:56:47;7.30;99.90
51655;DHT22;37732;53.106;7.030;2024-03-23T07:59:13;7.50;99.90
51655;DHT22;37732;53.106;7.030;2024-03-23T08:01:39;7.70;99.90
51655;DHT22;37732;53.106;7.030;2024-03-23T08:04:06;7.80;99.90
51655;DHT22;37732;53.106;7.030;2024-03-23T08:06:31;7.90;99.90
51655;DHT22;37732;53.106;7.030;2024-03-23T08:08:57;8.10;99.90
51655;DHT22;37732;53.106;7.030;2024-03-23T08:11:27;8.20;99.90
51655;DHT22;37732;53.106;7.030;2024-03-23T08:13:54;8.10;99.90
51655;DHT22;37732;53.106;7.030;2024-03-23T08:16:21;8.40;99.90
51655;DHT22;37732;53.106;7.030;2024-03-23T08:18:46;8.50;99.90
51655;DHT22;37732;53.106;7.030;2024-03-23T08:21:12;8.60;99.90
51655;DHT22;37732;53.106;7.030;2024-03-23T08:23:38;8.70;99.90
51655;DHT22;37732;53.106;7.030;2024-03-23T08:26:06;8.80;99.90
51655;DHT22;37732;53.106;7.030;2024-03-23T08:28:32;8.70;99.90
51655;DHT22;37732;53.106;7.030;2024-03-23T08:31:02;8.50;99.90
51655;DHT22;37732;53.106;7.030;2024-03-23T08:33:28;8.30;99.90
51655;DHT22;37732;53.106;7.030;2024-03-23T08:35:54;8.30;99.90
51655;DHT22;37732;53.106;7.030;2024-03-23T08:38:21;8.30;99.90
51655;DHT22;37732;53.106;7.030;2024-03-23T08:40:47;8.40;99.90
51655;DHT22;37732;53.106;7.030;2024-03-23T08:43:13;8.50;99.90
51655;DHT22;37732;53.106;7.030;2024-03-23T08:45:38;8.60;99.90
51655;DHT22;37732;53.106;7.030;2024-03-23T08:48:04;8.70;99.90
51655;DHT22;37732;53.106;7.030;2024-03-23T08:50:30;8.90;99.90
51655;DHT22;37732;53.106;7.030;2024-03-23T08:52:56;9.00;99.90
51655;DHT22;37732;53.106;7.030;2024-03-23T08:55:21;9.00;99.90
51655;DHT22;37732;53.106;7.030;2024-03-23T08:57:47;9.00;99.90
51655;DHT22;37732;53.106;7.030;2024-03-23T09:00:13;8.90;99.90
51655;DHT22;37732;53.106;7.030;2024-03-23T09:02:39;8.70;99.90
51655;DHT22;37732;53.106;7.030;2024-03-23T09:05:05;8.60;99.90
51655;DHT22;37732;53.106;7.030;2024-03-23T09:07:31;8.40;99.90
51655;DHT22;37732;53.106;7.030;2024-03-23T09:09:57;8.20;99.90
51655;DHT22;37732;53.106;7.030;2024-03-23T09:12:23;8.40;99.90
51655;DHT22;37732;53.106;7.030;2024-03-23T09:14:50;8.40;99.90
51655;DHT22;37732;53.106;7.030;2024-03-23T09:17:16;8.60;99.90
51655;DHT22;37732;53.106;7.030;2024-03-23T09:19:41;8.80;99.90
51655;DHT22;37732;53.106;7.030;2024-03-23T09:22:07;9.00;99.90
51655;DHT22;37732;53.106;7.030;2024-03-23T09:24:33;9.00;99.90
51655;DHT22;37732;53.106;7.030;2024-03-23T09:26:58;9.20;99.90
51655;DHT22;37732;53.106;7.030;2024-03-23T09:29:24;9.20;99.90
51655;DHT22;37732;53.106;7.030;2024-03-23T09:31:49;9.40;99.90
51655;DHT22;37732;53.106;7.030;2024-03-23T09:34:15;9.40;99.90
51655;DHT22;37732;53.106;7.030;2024-03-23T09:36:41;9.40;99.90
51655;DHT22;37732;53.106;7.030;2024-03-23T09:39:07;9.30;99.90
51655;DHT22;37732;53.106;7.030;2024-03-23T09:41:35;9.40;99.90
51655;DHT22;37732;53.106;7.030;2024-03-23T09:44:01;9.50;99.90
51655;DHT22;37732;53.106;7.030;2024-03-23T09:46:27;9.60;99.90
51655;DHT22;37732;53.106;7.030;2024-03-23T09:48:55;9.60;99.90
51655;DHT22;37732;53.106;7.030;2024-03-23T09:51:21;9.60;99.90
51655;DHT22;37732;53.106;7.030;2024-03-23T09:53:49;9.70;99.90
51655;DHT22;37732;53.106;7.030;2024-03-23T09:56:15;9.90;99.90
51655;DHT22;37732;53.106;7.030;2024-03-23T09:58:42;9.90;99.90
51655;DHT22;37732;53.106;7.030;2024-03-23T10:01:09;9.80;99.90
51655;DHT22;37732;53.106;7.030;2024-03-23T10:03:47;9.50;99.90
51655;DHT22;37732;53.106;7.030;2024-03-23T10:06:12;9.20;99.90
51655;DHT22;37732;53.106;7.030;2024-03-23T10:08:38;9.00;99.90
51655;DHT22;37732;53.106;7.030;2024-03-23T10:11:15;8.80;99.90
51655;DHT22;37732;53.106;7.030;2024-03-23T10:13:44;8.60;99.90
51655;DHT22;37732;53.106;7.030;2024-03-23T10:16:11;8.50;99.90
51655;DHT22;37732;53.106;7.030;2024-03-23T10:18:38;8.40;99.90
51655;DHT22;37732;53.106;7.030;2024-03-23T10:21:15;8.60;99.90
51655;DHT22;37732;53.106;7.030;2024-03-23T10:23:42;8.70;99.90
51655;DHT22;37732;53.106;7.030;2024-03-23T10:26:19;8.70;99.90
51655;DHT22;37732;53.106;7.030;2024-03-23T10:28:58;8.40;99.90
51655;DHT22;37732;53.106;7.030;2024-03-23T10:31:27;8.00;99.90
51655;DHT22;37732;53.106;7.030;2024-03-23T10:33:52;7.80;99.90
51655;DHT22;37732;53.106;7.030;2024-03-23T10:36:22;7.60;99.90
51655;DHT22;37732;53.106;7.030;2024-03-23T10:38:50;7.40;99.90
51655;DHT22;37732;53.106;7.030;2024-03-23T10:41:17;7.30;99.90
51655;DHT22;37732;53.106;7.030;2024-03-23T10:43:45;7.20;99.90
51655;DHT22;37732;53.106;7.030;2024-03-23T10:46:11;7.30;99.90
51655;DHT22;37732;53.106;7.030;2024-03-23T10:48:37;7.30;99.90
51655;DHT22;37732;53.106;7.030;2024-03-23T10:51:05;7.20;99.90
51655;DHT22;37732;53.106;7.030;2024-03-23T10:53:33;7.10;99.90
51655;DHT22;37732;53.106;7.030;2024-03-23T10:55:59;7.10;99.90
51655;DHT22;37732;53.106;7.030;2024-03-23T10:58:40;7.20;99.90
51655;DHT22;37732;53.106;7.030;2024-03-23T11:01:07;7.60;99.90
51655;DHT22;37732;53.106;7.030;2024-03-23T11:03:37;7.90;99.90
51655;DHT22;37732;53.106;7.030;2024-03-23T11:06:06;8.10;99.90
51655;DHT22;37732;53.106;7.030;2024-03-23T11:08:40;8.30;99.90
51655;DHT22;37732;53.106;7.030;2024-03-23T11:11:20;8.50;99.90
51655;DHT22;37732;53.106;7.030;2024-03-23T11:13:53;8.60;99.90
51655;DHT22;37732;53.106;7.030;2024-03-23T11:16:26;8.70;99.90
51655;DHT22;37732;53.106;7.030;2024-03-23T11:19:38;8.90;99.90
51655;DHT22;37732;53.106;7.030;2024-03-23T11:22:04;9.10;99.90
51655;DHT22;37732;53.106;7.030;2024-03-23T11:24:33;9.10;99.90
51655;DHT22;37732;53.106;7.030;2024-03-23T11:27:00;9.10;99.90
51655;DHT22;37732;53.106;7.030;2024-03-23T11:29:27;8.90;99.90
51655;DHT22;37732;53.106;7.030;2024-03-23T11:31:53;8.70;99.90
51655;DHT22;37732;53.106;7.030;2024-03-23T11:34:20;8.70;99.90
51655;DHT22;37732;53.106;7.030;2024-03-23T11:36:46;8.70;99.90
51655;DHT22;37732;53.106;7.030;2024-03-23T11:39:17;8.50;99.90
51655;DHT22;37732;53.106;7.030;2024-03-23T11:41:51;8.40;99.90
51655;DHT22;37732;53.106;7.030;2024-03-23T11:44:25;8.30;99.90
51655;DHT22;37732;53.106;7.030;2024-03-23T11:46:51;8.40;99.90
51655;DHT22;37732;53.106;7.030;2024-03-23T11:51:50;8.80;99.90
51655;DHT22;37732;53.106;7.030;2024-03-23T11:54:16;8.90;99.90
51655;DHT22;37732;53.106;7.030;2024-03-23T11:57:02;8.80;99.90
51655;DHT22;37732;53.106;7.030;2024-03-23T11:59:38;8.80;99.90
51655;DHT22;37732;53.106;7.030;2024-03-23T12:02:11;9.00;99.90
51655;DHT22;37732;53.106;7.030;2024-03-23T12:04:37;8.80;99.90
51655;DHT22;37732;53.106;7.030;2024-03-23T12:07:29;8.90;99.90
51655;DHT22;37732;53.106;7.030;2024-03-23T12:10:04;9.10;99.90
51655;DHT22;37732;53.106;7.030;2024-03-23T12:12:31;9.10;99.90
51655;DHT22;37732;53.106;7.030;2024-03-23T12:15:07;9.00;99.90
51655;DHT22;37732;53.106;7.030;2024-03-23T12:17:34;8.80;99.90
51655;DHT22;37732;53.106;7.030;2024-03-23T12:20:01;8.70;99.90
51655;DHT22;37732;53.106;7.030;2024-03-23T12:22:27;8.60;99.90
51655;DHT22;37732;53.106;7.030;2024-03-23T12:24:54;8.70;99.90
51655;DHT22;37732;53.106;7.030;2024-03-23T12:27:20;8.90;99.90
51655;DHT22;37732;53.106;7.030;2024-03-23T12:29:46;8.90;99.90
51655;DHT22;37732;53.106;7.030;2024-03-23T12:32:13;9.00;99.90
51655;DHT22;37732;53.106;7.030;2024-03-23T12:34:39;8.90;99.90
51655;DHT22;37732;53.106;7.030;2024-03-23T12:37:05;8.50;99.90
51655;DHT22;37732;53.106;7.030;2024-03-23T12:39:34;8.20;99.90
51655;DHT22;37732;53.106;7.030;2024-03-23T12:42:01;7.90;99.90
51655;DHT22;37732;53.106;7.030;2024-03-23T12:44:30;7.80;99.90
51655;DHT22;37732;53.106;7.030;2024-03-23T12:46:55;7.70;99.90
51655;DHT22;37732;53.106;7.030;2024-03-23T12:49:21;7.50;99.90
51655;DHT22;37732;53.106;7.030;2024-03-23T12:51:54;7.80;99.90
51655;DHT22;37732;53.106;7.030;2024-03-23T12:54:20;7.60;99.90
51655;DHT22;37732;53.106;7.030;2024-03-23T12:56:46;7.70;99.90
51655;DHT22;37732;53.106;7.030;2024-03-23T12:59:12;7.90;99.90
51655;DHT22;37732;53.106;7.030;2024-03-23T13:01:38;7.90;99.90
51655;DHT22;37732;53.106;7.030;2024-03-23T13:04:04;7.90;99.90
51655;DHT22;37732;53.106;7.030;2024-03-23T13:06:30;8.00;99.90
51655;DHT22;37732;53.106;7.030;2024-03-23T13:09:01;8.00;99.90
51655;DHT22;37732;53.106;7.030;2024-03-23T13:11:27;8.00;99.90
51655;DHT22;37732;53.106;7.030;2024-03-23T13:13:53;8.20;99.90
51655;DHT22;37732;53.106;7.030;2024-03-23T13:16:18;8.40;99.90
51655;DHT22;37732;53.106;7.030;2024-03-23T13:18:44;8.50;99.90
51655;DHT22;37732;53.106;7.030;2024-03-23T13:21:10;8.50;99.90
51655;DHT22;37732;53.106;7.030;2024-03-23T13:23:36;8.30;99.90
51655;DHT22;37732;53.106;7.030;2024-03-23T13:26:03;8.20;99.90
51655;DHT22;37732;53.106;7.030;2024-03-23T13:28:29;8.10;99.90
51655;DHT22;37732;53.106;7.030;2024-03-23T13:30:56;8.20;99.90
51655;DHT22;37732;53.106;7.030;2024-03-23T13:33:22;8.30;99.90
51655;DHT22;37732;53.106;7.030;2024-03-23T13:35:54;8.30;99.90
51655;DHT22;37732;53.106;7.030;2024-03-23T13:38:22;8.30;99.90
51655;DHT22;37732;53.106;7.030;2024-03-23T13:40:53;8.20;99.90
51655;DHT22;37732;53.106;7.030;2024-03-23T13:43:19;8.10;99.90
51655;DHT22;37732;53.106;7.030;2024-03-23T13:45:49;8.20;99.90
51655;DHT22;37732;53.106;7.030;2024-03-23T13:48:16;8.30;99.90
51655;DHT22;37732;53.106;7.030;2024-03-23T13:50:42;8.30;99.90
51655;DHT22;37732;53.106;7.030;2024-03-23T13:53:07;8.60;99.90
51655;DHT22;37732;53.106;7.030;2024-03-23T13:55:34;8.70;99.90
51655;DHT22;37732;53.106;7.030;2024-03-23T13:58:00;8.70;99.90
51655;DHT22;37732;53.106;7.030;2024-03-23T14:00:25;8.90;99.90
51655;DHT22;37732;53.106;7.030;2024-03-23T14:02:54;9.00;99.90
51655;DHT22;37732;53.106;7.030;2024-03-23T14:05:19;8.90;99.90
51655;DHT22;37732;53.106;7.030;2024-03-23T14:07:45;8.90;99.90
51655;DHT22;37732;53.106;7.030;2024-03-23T14:10:11;9.00;99.90
51655;DHT22;37732;53.106;7.030;2024-03-23T14:12:36;9.00;99.90
51655;DHT22;37732;53.106;7.030;2024-03-23T14:15:06;8.90;99.90
51655;DHT22;37732;53.106;7.030;2024-03-23T14:17:32;8.80;99.90
51655;DHT22;37732;53.106;7.030;2024-03-23T14:19:58;9.00;99.90
51655;DHT22;37732;53.106;7.030;2024-03-23T14:22:27;9.20;99.90
51655;DHT22;37732;53.106;7.030;2024-03-23T14:24:53;9.20;99.90
51655;DHT22;37732;53.106;7.030;2024-03-23T14:27:19;8.60;99.90
51655;DHT22;37732;53.106;7.030;2024-03-23T14:29:48;8.20;99.90
51655;DHT22;37732;53.106;7.030;2024-03-23T14:32:14;7.80;99.90
51655;DHT22;37732;53.106;7.030;2024-03-23T14:34:41;7.50;99.90
51655;DHT22;37732;53.106;7.030;2024-03-23T14:37:07;7.20;99.90
51655;DHT22;37732;53.106;7.030;2024-03-23T14:39:33;7.20;99.90
51655;DHT22;37732;53.106;7.030;2024-03-23T14:42:01;7.30;99.90
51655;DHT22;37732;53.106;7.030;2024-03-23T14:44:28;7.60;99.90
51655;DHT22;37732;53.106;7.030;2024-03-23T14:46:54;7.80;99.90
51655;DHT22;37732;53.106;7.030;2024-03-23T14:49:21;7.90;99.90
51655;DHT22;37732;53.106;7.030;2024-03-23T14:51:46;8.10;99.90
51655;DHT22;37732;53.106;7.030;2024-03-23T14:54:12;8.20;99.90
51655;DHT22;37732;53.106;7.030;2024-03-23T14:56:38;8.20;99.90
51655;DHT22;37732;53.106;7.030;2024-03-23T14:59:04;8.30;99.90
51655;DHT22;37732;53.106;7.030;2024-03-23T15:01:31;8.40;99.90
51655;DHT22;37732;53.106;7.030;2024-03-23T15:03:57;8.70;99.90
51655;DHT22;37732;53.106;7.030;2024-03-23T15:06:23;8.50;99.90
51655;DHT22;37732;53.106;7.030;2024-03-23T15:08:48;8.50;99.90
51655;DHT22;37732;53.106;7.030;2024-03-23T15:11:14;8.50;99.90
51655;DHT22;37732;53.106;7.030;2024-03-23T15:13:43;8.50;99.90
51655;DHT22;37732;53.106;7.030;2024-03-23T15:16:09;8.50;99.90
51655;DHT22;37732;53.106;7.030;2024-03-23T15:18:35;8.60;99.90
51655;DHT22;37732;53.106;7.030;2024-03-23T15:21:02;8.60;99.90
51655;DHT22;37732;53.106;7.030;2024-03-23T15:23:29;8.70;99.90
51655;DHT22;37732;53.106;7.030;2024-03-23T15:25:59;8.70;99.90
51655;DHT22;37732;53.106;7.030;2024-03-23T15:28:26;8.60;99.90
51655;DHT22;37732;53.106;7.030;2024-03-23T15:31:06;8.60;99.90
51655;DHT22;37732;53.106;7.030;2024-03-23T15:33:32;8.50;99.90
51655;DHT22;37732;53.106;7.030;2024-03-23T15:36:05;8.30;99.90
51655;DHT22;37732;53.106;7.030;2024-03-23T15:38:31;8.20;99.90
51655;DHT22;37732;53.106;7.030;2024-03-23T15:40:58;8.10;99.90
51655;DHT22;37732;53.106;7.030;2024-03-23T15:43:23;8.00;99.90
51655;DHT22;37732;53.106;7.030;2024-03-23T15:45:59;7.90;99.90
51655;DHT22;37732;53.106;7.030;2024-03-23T15:48:25;8.00;99.90
51655;DHT22;37732;53.106;7.030;2024-03-23T15:50:53;8.00;99.90
51655;DHT22;37732;53.106;7.030;2024-03-23T15:53:20;8.10;99.90
51655;DHT22;37732;53.106;7.030;2024-03-23T15:56:02;8.10;99.90
51655;DHT22;37732;53.106;7.030;2024-03-23T15:58:29;8.20;99.90
51655;DHT22;37732;53.106;7.030;2024-03-23T16:03:21;8.30;99.90
51655;DHT22;37732;53.106;7.030;2024-03-23T16:05:54;8.20;99.90
51655;DHT22;37732;53.106;7.030;2024-03-23T16:08:20;8.20;99.90
51655;DHT22;37732;53.106;7.030;2024-03-23T16:10:46;8.20;99.90
51655;DHT22;37732;53.106;7.030;2024-03-23T16:13:12;8.30;99.90
51655;DHT22;37732;53.106;7.030;2024-03-23T16:15:38;8.30;99.90
51655;DHT22;37732;53.106;7.030;2024-03-23T16:18:04;8.30;99.90
51655;DHT22;37732;53.106;7.030;2024-03-23T16:20:29;8.30;99.90
51655;DHT22;37732;53.106;7.030;2024-03-23T16:22:56;8.30;99.90
51655;DHT22;37732;53.106;7.030;2024-03-23T16:25:22;8.30;99.90
51655;DHT22;37732;53.106;7.030;2024-03-23T16:27:49;8.20;99.90
51655;DHT22;37732;53.106;7.030;2024-03-23T16:30:14;8.20;99.90
51655;DHT22;37732;53.106;7.030;2024-03-23T16:32:41;8.10;99.90
51655;DHT22;37732;53.106;7.030;2024-03-23T16:35:07;8.10;99.90
51655;DHT22;37732;53.106;7.030;2024-03-23T16:37:35;8.10;99.90
51655;DHT22;37732;53.106;7.030;2024-03-23T16:40:01;8.10;99.90
51655;DHT22;37732;53.106;7.030;2024-03-23T16:42:27;8.00;99.90
51655;DHT22;37732;53.106;7.030;2024-03-23T16:44:52;8.00;99.90
51655;DHT22;37732;53.106;7.030;2024-03-23T16:47:18;8.00;99.90
51655;DHT22;37732;53.106;7.030;2024-03-23T16:49:44;8.00;99.90